createdAt,value
2023-03-26T00:05:45.931Z,19.40
2023-03-26T00:07:49.010Z,32.50
2023-03-26T00:09:58.141Z,32.42
2023-03-26T00:12:00.328Z,23.52
2023-03-26T00:14:02.892Z,26.52
2023-03-26T00:16:05.589Z,26.27
2023-03-26T00:18:10.876Z,19.23
2023-03-26T00:20:14.559Z,28.25
2023-03-26T00:22:17.364Z,32.15
2023-03-26T00:24:19.994Z,26.58
2023-03-26T00:26:22.728Z,30.58
2023-03-26T00:28:25.062Z,27.88
2023-03-26T00:30:27.888Z,28.15
2023-03-26T00:32:30.853Z,27.60
2023-03-26T00:34:34.707Z,27.45
2023-03-26T00:36:36.818Z,27.00
2023-03-26T00:38:39.554Z,31.52
2023-03-26T00:40:44.350Z,22.98
2023-03-26T00:42:46.375Z,24.90
2023-03-26T00:44:51.474Z,27.55
2023-03-26T00:46:53.641Z,25.83
2023-03-26T00:48:59.164Z,30.98
2023-03-26T00:51:02.553Z,25.40
2023-03-26T00:53:04.516Z,26.02
2023-03-26T00:55:07.431Z,37.10
2023-03-26T00:57:10.710Z,38.00
2023-03-26T00:59:12.744Z,25.33
2023-03-26T01:01:18.908Z,25.17
2023-03-26T01:03:26.726Z,36.35
2023-03-26T01:05:43.320Z,30.65
2023-03-26T01:07:46.359Z,33.03
2023-03-26T01:09:51.565Z,23.65
2023-03-26T01:11:54.002Z,28.08
2023-03-26T01:13:59.758Z,34.30
2023-03-26T01:16:02.258Z,22.35
2023-03-26T01:18:06.074Z,29.77
2023-03-26T01:20:16.265Z,26.35
2023-03-26T01:22:21.795Z,25.52
2023-03-26T01:24:24.093Z,27.70
2023-03-26T01:26:32.520Z,28.67
2023-03-26T01:28:37.061Z,33.53
2023-03-26T01:30:41.793Z,27.00
2023-03-26T01:32:50.272Z,26.05
2023-03-26T01:35:01.397Z,22.65
2023-03-26T01:37:13.534Z,30.65
2023-03-26T01:39:22.176Z,26.02
2023-03-26T01:41:32.838Z,23.65
2023-03-26T01:43:41.080Z,19.77
2023-03-26T01:45:46.653Z,23.20
2023-03-26T01:47:49.419Z,35.72
2023-03-26T01:49:51.623Z,24.05
2023-03-26T01:51:55.497Z,26.05
2023-03-26T01:53:58.743Z,24.85
2023-03-26T01:56:13.722Z,25.67
2023-03-26T01:58:26.665Z,31.65
2023-03-26T02:00:34.007Z,31.55
2023-03-26T02:02:41.700Z,28.75
2023-03-26T02:04:53.547Z,32.13
2023-03-26T02:07:06.013Z,29.92
2023-03-26T02:09:14.300Z,33.83
2023-03-26T02:11:16.684Z,30.60
2023-03-26T02:13:19.618Z,29.27
2023-03-26T02:15:22.139Z,26.77
2023-03-26T02:17:24.676Z,22.98
2023-03-26T02:19:27.006Z,36.20
2023-03-26T02:21:29.287Z,25.48
2023-03-26T02:23:36.021Z,24.73
2023-03-26T02:25:40.092Z,30.58
2023-03-26T02:27:42.722Z,16.52
2023-03-26T02:29:44.933Z,31.05
2023-03-26T02:31:49.473Z,28.75
2023-03-26T02:33:51.644Z,30.00
2023-03-26T02:35:54.150Z,29.40
2023-03-26T02:37:56.498Z,26.67
2023-03-26T02:39:58.833Z,23.30
2023-03-26T02:42:01.224Z,22.67
2023-03-26T02:44:03.688Z,24.67
2023-03-26T02:46:05.994Z,17.30
2023-03-26T02:48:08.411Z,16.77
2023-03-26T02:50:12.298Z,20.88
2023-03-26T02:52:17.348Z,16.77
2023-03-26T02:54:19.469Z,10.43
2023-03-26T02:56:22.015Z,14.25
2023-03-26T02:58:25.598Z,22.50
2023-03-26T03:00:29.210Z,17.98
2023-03-26T03:02:31.389Z,13.13
2023-03-26T03:04:33.851Z,12.80
2023-03-26T03:06:36.017Z,16.73
2023-03-26T03:08:38.164Z,11.77
2023-03-26T03:10:40.360Z,17.90
2023-03-26T03:12:42.647Z,8.88
2023-03-26T03:14:44.732Z,14.18
2023-03-26T03:16:48.387Z,12.70
2023-03-26T03:18:54.787Z,13.60
2023-03-26T03:20:57.325Z,8.50
2023-03-26T03:22:59.946Z,11.90
2023-03-26T03:25:02.727Z,15.43
2023-03-26T03:27:05.288Z,12.52
2023-03-26T03:29:07.445Z,9.02
2023-03-26T03:31:09.681Z,10.90
2023-03-26T03:33:13.346Z,10.98
2023-03-26T03:35:15.746Z,11.18
2023-03-26T03:37:19.462Z,14.02
2023-03-26T03:39:22.019Z,7.38
2023-03-26T03:41:24.247Z,4.57
2023-03-26T03:43:27.864Z,14.20
2023-03-26T03:45:30.048Z,9.05
2023-03-26T03:47:32.499Z,8.90
2023-03-26T03:49:34.696Z,16.00
2023-03-26T03:51:37.291Z,11.32
2023-03-26T03:53:40.795Z,8.32
2023-03-26T03:55:43.281Z,9.63
2023-03-26T03:57:46.081Z,9.20
2023-03-26T03:59:49.408Z,12.98
2023-03-26T04:01:51.777Z,8.15
2023-03-26T04:03:53.974Z,8.10
2023-03-26T04:05:56.847Z,3.20
2023-03-26T04:08:00.418Z,8.35
2023-03-26T04:10:04.103Z,9.07
2023-03-26T04:12:06.994Z,5.68
2023-03-26T04:14:09.183Z,9.93
2023-03-26T04:16:11.660Z,8.23
2023-03-26T04:18:14.017Z,13.00
2023-03-26T04:20:16.298Z,10.85
2023-03-26T04:22:19.599Z,7.85
2023-03-26T04:24:22.677Z,6.85
2023-03-26T04:26:24.980Z,4.95
2023-03-26T04:28:32.876Z,13.05
2023-03-26T04:30:35.379Z,6.72
2023-03-26T04:32:39.331Z,8.45
2023-03-26T04:34:46.518Z,6.55
2023-03-26T04:36:48.752Z,7.07
2023-03-26T04:38:52.242Z,7.20
2023-03-26T04:40:54.545Z,5.63
2023-03-26T04:43:02.608Z,4.38
2023-03-26T04:45:06.551Z,8.40
2023-03-26T04:47:09.302Z,4.13
2023-03-26T04:49:11.668Z,4.82
2023-03-26T04:51:18.698Z,2.67
2023-03-26T04:53:22.372Z,6.10
2023-03-26T04:55:31.596Z,1.75
2023-03-26T04:57:42.899Z,1.55
2023-03-26T04:59:45.166Z,1.98
2023-03-26T05:01:47.370Z,2.40
2023-03-26T05:03:50.274Z,3.72
2023-03-26T05:05:53.153Z,1.85
2023-03-26T05:07:55.945Z,0.10
2023-03-26T05:09:58.191Z,2.17
2023-03-26T05:12:01.366Z,1.02
2023-03-26T05:14:04.546Z,0.60
2023-03-26T05:16:07.195Z,0.50
2023-03-26T05:18:10.685Z,0.20
2023-03-26T05:20:21.669Z,1.58
2023-03-26T05:22:23.946Z,0.28
2023-03-26T05:24:27.500Z,1.17
2023-03-26T05:26:30.325Z,0.80
2023-03-26T05:28:32.562Z,0.40
2023-03-26T05:30:34.822Z,0.73
2023-03-26T05:32:38.518Z,0.55
2023-03-26T05:34:41.485Z,0.98
2023-03-26T05:36:44.245Z,0.70
2023-03-26T05:38:49.751Z,0.05
2023-03-26T05:40:52.467Z,1.60
2023-03-26T05:42:54.915Z,0.32
2023-03-26T05:44:57.169Z,0.50
2023-03-26T05:46:59.481Z,0.98
2023-03-26T05:49:01.998Z,0.77
2023-03-26T05:51:05.556Z,1.23
2023-03-26T05:53:08.007Z,0.68
2023-03-26T05:55:10.600Z,0.40
2023-03-26T05:57:12.902Z,0.38
2023-03-26T05:59:15.851Z,0.20
2023-03-26T06:01:19.264Z,1.88
2023-03-26T06:03:23.512Z,2.17
2023-03-26T06:05:26.703Z,0.68
2023-03-26T06:07:29.048Z,1.45
2023-03-26T06:09:31.837Z,1.00
2023-03-26T06:11:34.338Z,3.15
2023-03-26T06:13:36.439Z,0.50
2023-03-26T06:15:39.286Z,1.85
2023-03-26T06:17:43.055Z,1.90
2023-03-26T06:19:45.607Z,3.63
2023-03-26T06:21:47.834Z,2.10
2023-03-26T06:23:50.275Z,0.60
2023-03-26T06:25:52.606Z,2.22
2023-03-26T06:27:54.760Z,0.20
2023-03-26T06:29:57.151Z,1.58
2023-03-26T06:32:09.178Z,1.05
2023-03-26T06:34:18.647Z,1.85
2023-03-26T06:36:21.144Z,1.20
2023-03-26T06:38:24.228Z,0.88
2023-03-26T06:40:26.582Z,2.10
2023-03-26T06:43:07.032Z,3.28
2023-03-26T06:44:52.490Z,1.88
2023-03-26T06:46:54.918Z,2.78
2023-03-26T06:48:57.181Z,4.25
2023-03-26T06:50:59.843Z,1.17
2023-03-26T06:53:02.898Z,2.05
2023-03-26T06:55:10.040Z,1.33
2023-03-26T06:57:12.297Z,2.85
2023-03-26T06:59:15.180Z,1.15
2023-03-26T07:01:17.781Z,3.20
2023-03-26T07:03:20.601Z,2.17
2023-03-26T07:05:23.337Z,3.53
2023-03-26T07:07:26.754Z,3.08
2023-03-26T07:09:31.530Z,2.97
2023-03-26T07:11:34.703Z,2.03
2023-03-26T07:13:38.401Z,2.25
2023-03-26T07:15:44.472Z,3.42
2023-03-26T07:17:48.493Z,1.60
2023-03-26T07:19:53.390Z,1.35
2023-03-26T07:21:56.589Z,1.00
2023-03-26T07:23:59.616Z,1.88
2023-03-26T07:26:20.432Z,0.85
2023-03-26T07:28:32.172Z,0.60
2023-03-26T07:30:41.710Z,0.55
2023-03-26T07:32:56.170Z,1.08
2023-03-26T07:35:01.306Z,0.65
2023-03-26T07:37:14.383Z,1.17
2023-03-26T07:39:21.592Z,2.08
2023-03-26T07:41:38.861Z,0.70
2023-03-26T07:43:49.161Z,2.45
2023-03-26T07:45:54.604Z,0.65
2023-03-26T07:47:57.690Z,1.85
2023-03-26T07:50:01.497Z,0.95
2023-03-26T07:52:04.630Z,0.40
2023-03-26T07:54:09.430Z,0.40
2023-03-26T07:56:16.452Z,2.33
2023-03-26T07:58:37.536Z,1.40
2023-03-26T08:00:48.133Z,0.10
2023-03-26T08:02:59.641Z,0.22
2023-03-26T08:05:13.781Z,2.72
2023-03-26T08:07:34.531Z,0.95
2023-03-26T08:09:50.057Z,0.65
2023-03-26T08:12:05.153Z,0.35
2023-03-26T08:14:16.941Z,0.20
2023-03-26T08:16:20.920Z,0.60
2023-03-26T08:18:31.662Z,0.15
2023-03-26T08:20:44.894Z,1.13
2023-03-26T08:22:59.406Z,0.40
2023-03-26T08:25:18.495Z,0.88
2023-03-26T08:27:28.050Z,1.92
2023-03-26T08:29:39.336Z,2.17
2023-03-26T08:31:58.472Z,2.60
2023-03-26T08:34:07.129Z,0.65
2023-03-26T08:36:11.822Z,0.90
2023-03-26T08:38:18.959Z,2.85
2023-03-26T08:40:40.012Z,0.85
2023-03-26T08:42:50.009Z,1.05
2023-03-26T08:45:05.788Z,1.40
2023-03-26T08:47:20.003Z,0.98
2023-03-26T08:49:35.680Z,1.05
2023-03-26T08:51:58.436Z,2.65
2023-03-26T08:54:09.297Z,1.23
2023-03-26T08:58:43.765Z,0.40
2023-03-26T09:00:53.202Z,1.17
2023-03-26T09:03:13.736Z,1.90
2023-03-26T09:05:30.720Z,0.80
2023-03-26T09:07:38.393Z,0.32
2023-03-26T09:09:43.892Z,0.68
2023-03-26T09:12:04.630Z,0.88
2023-03-26T09:14:13.567Z,1.55
2023-03-26T09:16:20.829Z,2.05
2023-03-26T09:18:30.316Z,1.48
2023-03-26T09:20:47.272Z,1.55
2023-03-26T09:23:06.327Z,2.78
2023-03-26T09:25:17.436Z,1.58
2023-03-26T09:27:26.926Z,1.00
2023-03-26T09:29:39.004Z,0.95
2023-03-26T09:31:47.316Z,0.75
2023-03-26T09:33:57.478Z,1.02
2023-03-26T09:36:16.694Z,1.85
2023-03-26T09:38:44.911Z,1.15
2023-03-26T09:41:13.614Z,1.02
2023-03-26T09:43:29.515Z,1.77
2023-03-26T09:45:38.727Z,4.07
2023-03-26T09:47:49.472Z,1.67
2023-03-26T09:50:20.165Z,1.48
2023-03-26T09:52:59.059Z,4.15
2023-03-26T09:55:10.525Z,4.53
2023-03-26T09:57:22.672Z,3.85
2023-03-26T09:59:51.486Z,4.72
2023-03-26T10:02:02.010Z,4.65
2023-03-26T10:04:11.562Z,2.58
2023-03-26T10:06:21.592Z,1.17
2023-03-26T10:08:43.451Z,1.63
2023-03-26T10:10:55.870Z,2.00
2023-03-26T10:13:15.139Z,1.60
2023-03-26T10:15:27.390Z,3.95
2023-03-26T10:17:41.856Z,2.05
2023-03-26T10:19:50.122Z,3.58
2023-03-26T10:21:55.539Z,3.92
2023-03-26T10:24:03.123Z,2.33
2023-03-26T10:29:10.864Z,2.28
2023-03-26T10:31:45.380Z,1.55
2023-03-26T10:34:28.728Z,1.85
2023-03-26T10:36:38.062Z,3.20
2023-03-26T10:38:44.458Z,1.50
2023-03-26T10:40:54.488Z,2.72
2023-03-26T10:43:07.248Z,1.45
2023-03-26T10:45:15.598Z,1.30
2023-03-26T10:47:23.381Z,1.20
2023-03-26T10:49:28.582Z,2.30
2023-03-26T10:51:36.472Z,1.92
2023-03-26T10:55:58.646Z,3.20
2023-03-26T11:00:16.120Z,2.55
2023-03-26T11:02:29.158Z,3.03
2023-03-26T11:04:49.231Z,1.55
2023-03-26T11:06:59.618Z,3.70
2023-03-26T11:09:07.143Z,2.17
2023-03-26T11:11:12.522Z,3.90
2023-03-26T11:13:20.887Z,4.35
2023-03-26T11:15:27.413Z,2.45
2023-03-26T11:17:40.983Z,2.60
2023-03-26T11:19:49.823Z,1.15
2023-03-26T11:21:57.259Z,3.65
2023-03-26T11:24:05.401Z,2.47
2023-03-26T11:26:15.818Z,7.03
2023-03-26T11:28:34.503Z,4.22
2023-03-26T11:30:46.007Z,2.03
2023-03-26T11:32:53.165Z,4.25
2023-03-26T11:35:00.454Z,2.40
2023-03-26T11:37:05.158Z,1.55
2023-03-26T11:39:14.189Z,3.10
2023-03-26T11:41:16.446Z,5.07
2023-03-26T11:43:32.487Z,1.08
2023-03-26T11:45:38.835Z,2.85
2023-03-26T11:47:50.509Z,2.03
2023-03-26T11:49:55.427Z,0.25
2023-03-26T11:51:57.942Z,1.60
2023-03-26T11:54:03.297Z,1.55
2023-03-26T11:56:10.192Z,3.03
2023-03-26T11:58:31.437Z,2.97
2023-03-26T12:00:33.987Z,4.75
2023-03-26T12:02:40.161Z,2.55
2023-03-26T12:04:45.850Z,2.00
2023-03-26T12:06:57.795Z,2.58
2023-03-26T12:08:59.739Z,3.40
2023-03-26T12:11:08.960Z,4.85
2023-03-26T12:13:16.533Z,2.33
2023-03-26T12:15:20.916Z,4.47
2023-03-26T12:17:30.946Z,6.50
2023-03-26T12:19:39.798Z,4.47
2023-03-26T12:21:49.670Z,3.03
2023-03-26T12:23:57.869Z,5.03
2023-03-26T12:26:05.227Z,6.32
2023-03-26T12:28:13.931Z,7.57
2023-03-26T12:30:25.438Z,5.05
2023-03-26T12:32:43.231Z,8.48
2023-03-26T12:34:48.201Z,1.75
2023-03-26T12:36:54.865Z,5.57
2023-03-26T12:39:16.998Z,6.78
2023-03-26T12:44:44.553Z,5.25
2023-03-26T12:44:50.125Z,8.50
2023-03-26T12:47:59.336Z,7.38
2023-03-26T12:48:41.293Z,7.45
2023-03-26T12:50:51.109Z,5.63
2023-03-26T12:53:02.529Z,8.65
2023-03-26T12:55:12.278Z,6.72
2023-03-26T12:57:20.693Z,11.50
2023-03-26T12:59:26.065Z,10.55
2023-03-26T13:01:34.544Z,11.05
2023-03-26T13:03:44.725Z,11.52
2023-03-26T13:05:50.923Z,14.27
2023-03-26T13:07:58.554Z,13.40
2023-03-26T13:10:08.631Z,14.02
2023-03-26T13:12:14.471Z,10.75
2023-03-26T13:14:20.768Z,13.15
2023-03-26T13:16:25.900Z,8.57
2023-03-26T13:18:35.211Z,11.30
2023-03-26T13:20:49.261Z,12.90
2023-03-26T13:23:00.927Z,13.63
2023-03-26T13:25:07.594Z,9.70
2023-03-26T13:27:11.203Z,12.98
2023-03-26T13:29:15.997Z,15.48
2023-03-26T13:31:23.775Z,11.35
2023-03-26T13:33:28.604Z,19.45
2023-03-26T13:35:36.703Z,11.80
2023-03-26T13:37:45.571Z,9.55
2023-03-26T13:39:51.833Z,9.43
2023-03-26T13:41:59.309Z,9.43
2023-03-26T13:44:05.487Z,16.10
2023-03-26T13:46:21.492Z,10.57
2023-03-26T13:48:28.727Z,14.93
2023-03-26T13:50:41.817Z,14.30
2023-03-26T13:52:45.955Z,19.90
2023-03-26T13:54:54.176Z,15.90
2023-03-26T13:57:05.610Z,18.20
2023-03-26T13:59:10.650Z,17.98
2023-03-26T14:01:16.961Z,14.05
2023-03-26T14:03:24.884Z,15.68
2023-03-26T14:05:37.417Z,20.02
2023-03-26T14:07:43.351Z,21.23
2023-03-26T14:09:52.025Z,21.20
2023-03-26T14:11:57.913Z,18.05
2023-03-26T14:14:05.702Z,21.63
2023-03-26T14:16:16.408Z,21.83
2023-03-26T14:20:37.742Z,15.45
2023-03-26T14:22:45.648Z,9.85
2023-03-26T14:24:56.126Z,23.98
2023-03-26T14:27:05.618Z,19.75
2023-03-26T14:29:11.402Z,15.65
2023-03-26T14:31:19.727Z,18.50
2023-03-26T14:33:28.228Z,18.25
2023-03-26T14:35:37.607Z,18.02
2023-03-26T14:37:47.727Z,6.72
2023-03-26T14:39:52.470Z,17.52
2023-03-26T14:42:00.344Z,19.83
2023-03-26T14:44:08.038Z,12.05
2023-03-26T14:46:15.909Z,8.85
2023-03-26T14:48:22.235Z,14.02
2023-03-26T14:50:28.495Z,13.68
2023-03-26T14:54:44.398Z,15.57
2023-03-26T14:58:58.998Z,7.65
2023-03-26T15:01:07.037Z,19.30
2023-03-26T15:03:13.611Z,13.73
2023-03-26T15:05:21.851Z,11.60
2023-03-26T15:07:37.243Z,14.68
2023-03-26T15:09:46.401Z,6.65
2023-03-26T15:11:52.619Z,13.35
2023-03-26T15:13:59.662Z,10.55
2023-03-26T15:16:12.850Z,9.73
2023-03-26T15:18:19.398Z,10.88
2023-03-26T15:20:31.899Z,9.65
2023-03-26T15:22:41.983Z,9.80
2023-03-26T15:24:49.855Z,6.93
2023-03-26T15:27:09.271Z,9.77
2023-03-26T15:29:17.165Z,13.40
2023-03-26T15:31:37.375Z,10.43
2023-03-26T15:33:44.002Z,12.95
2023-03-26T15:35:51.751Z,10.43
2023-03-26T15:38:12.741Z,5.15
2023-03-26T15:40:20.548Z,4.72
2023-03-26T15:42:29.225Z,5.32
2023-03-26T15:46:38.662Z,8.48
2023-03-26T15:48:56.372Z,9.40
2023-03-26T15:51:02.047Z,12.13
2023-03-26T15:53:09.897Z,12.55
2023-03-26T15:55:16.383Z,2.92
2023-03-26T15:57:22.474Z,9.43
2023-03-26T15:59:37.282Z,8.27
2023-03-26T16:01:46.461Z,6.03
2023-03-26T16:04:01.713Z,7.30
2023-03-26T16:06:09.663Z,7.05
2023-03-26T16:08:20.716Z,3.60
2023-03-26T16:10:28.258Z,10.32
2023-03-26T16:12:36.006Z,10.50
2023-03-26T16:16:54.743Z,8.15
2023-03-26T16:23:53.933Z,7.80
2023-03-26T16:26:11.296Z,8.93
2023-03-26T16:28:14.173Z,10.07
2023-03-26T16:30:28.125Z,8.82
2023-03-26T16:32:34.325Z,10.52
2023-03-26T16:34:42.414Z,6.22
2023-03-26T16:36:46.264Z,11.85
2023-03-26T16:38:56.344Z,7.82
2023-03-26T16:41:03.978Z,9.18
2023-03-26T16:43:10.414Z,6.95
2023-03-26T16:45:19.007Z,15.73
2023-03-26T16:47:37.484Z,11.70
2023-03-26T16:49:43.712Z,14.43
2023-03-26T16:51:51.518Z,7.63
2023-03-26T16:53:59.357Z,4.88
2023-03-26T16:56:07.040Z,9.32
2023-03-26T16:58:14.856Z,5.90
2023-03-26T17:00:24.681Z,8.05
2023-03-26T17:04:37.058Z,12.00
2023-03-26T17:06:46.947Z,7.13
2023-03-26T17:09:01.575Z,8.10
2023-03-26T17:11:11.219Z,8.27
2023-03-26T17:13:20.575Z,14.82
2023-03-26T17:15:26.512Z,9.98
2023-03-26T17:17:32.194Z,5.45
2023-03-26T17:21:49.483Z,6.25
2023-03-26T17:26:06.212Z,4.05
2023-03-26T17:28:18.362Z,7.28
2023-03-26T17:30:26.491Z,10.70
2023-03-26T17:32:34.992Z,5.75
2023-03-26T17:34:56.798Z,4.28
2023-03-26T17:36:59.488Z,8.80
2023-03-26T17:39:17.775Z,5.00
2023-03-26T17:41:25.563Z,5.53
2023-03-26T17:43:35.844Z,5.38
2023-03-26T17:45:42.237Z,11.80
2023-03-26T17:47:52.061Z,4.07
2023-03-26T17:50:00.464Z,8.85
2023-03-26T17:52:17.127Z,5.72
2023-03-26T17:54:26.033Z,4.00
2023-03-26T17:56:32.601Z,5.78
2023-03-26T17:58:37.830Z,5.53
2023-03-26T18:00:43.869Z,5.15
2023-03-26T18:02:55.480Z,9.80
2023-03-26T18:04:58.257Z,8.45
2023-03-26T18:07:04.550Z,10.68
2023-03-26T18:09:12.908Z,7.07
2023-03-26T18:11:23.879Z,7.47
2023-03-26T18:13:28.566Z,10.27
2023-03-26T18:15:34.702Z,11.07
2023-03-26T18:17:41.949Z,4.85
2023-03-26T18:19:47.961Z,7.10
2023-03-26T18:21:52.450Z,5.85
2023-03-26T18:23:59.787Z,5.90
2023-03-26T18:26:08.543Z,5.20
2023-03-26T18:28:14.374Z,9.55
2023-03-26T18:30:20.542Z,5.57
2023-03-26T18:32:24.121Z,5.57
2023-03-26T18:34:29.725Z,4.35
2023-03-26T18:36:32.029Z,10.02
2023-03-26T18:38:36.259Z,9.25
2023-03-26T18:42:48.466Z,6.95
2023-03-26T18:44:52.020Z,8.68
2023-03-26T18:48:57.021Z,8.02
2023-03-26T18:51:05.799Z,6.18
2023-03-26T18:53:18.176Z,5.38
2023-03-26T18:55:20.349Z,4.30
2023-03-26T18:57:25.898Z,4.18
2023-03-26T18:59:32.082Z,14.70
2023-03-26T19:01:36.847Z,6.25
2023-03-26T19:03:43.847Z,4.65
2023-03-26T19:05:46.372Z,2.97
2023-03-26T19:07:49.577Z,7.30
2023-03-26T19:09:56.297Z,7.38
2023-03-26T19:12:04.821Z,5.80
2023-03-26T19:14:16.827Z,8.07
2023-03-26T19:16:23.534Z,5.20
2023-03-26T19:18:28.188Z,6.95
2023-03-26T19:20:38.240Z,6.15
2023-03-26T19:22:42.429Z,4.70
2023-03-26T19:24:44.783Z,6.57
2023-03-26T19:26:47.931Z,10.52
2023-03-26T19:28:55.322Z,7.00
2023-03-26T19:31:00.253Z,7.63
2023-03-26T19:33:12.814Z,4.47
2023-03-26T19:35:21.029Z,4.70
2023-03-26T19:37:27.013Z,6.88
2023-03-26T19:39:37.293Z,2.80
2023-03-26T19:41:44.009Z,5.78
2023-03-26T19:43:50.454Z,5.32
2023-03-26T19:45:59.800Z,6.20
2023-03-26T19:48:14.972Z,9.45
2023-03-26T19:50:23.777Z,7.28
2023-03-26T19:52:27.999Z,7.20
2023-03-26T19:54:31.348Z,6.32
2023-03-26T19:56:33.907Z,7.32
2023-03-26T19:58:36.389Z,7.43
2023-03-26T20:00:43.650Z,4.95
2023-03-26T20:02:46.901Z,8.07
2023-03-26T20:04:49.489Z,9.55
2023-03-26T20:06:53.023Z,4.78
2023-03-26T20:08:55.664Z,6.97
2023-03-26T20:10:59.033Z,4.25
2023-03-26T20:13:01.622Z,9.43
2023-03-26T20:15:19.267Z,4.72
2023-03-26T20:17:22.480Z,10.45
2023-03-26T20:19:26.225Z,16.85
2023-03-26T20:21:29.557Z,13.63
2023-03-26T20:23:31.933Z,5.80
2023-03-26T20:25:34.656Z,5.82
2023-03-26T20:27:37.191Z,7.18
2023-03-26T20:29:40.304Z,8.55
2023-03-26T20:31:43.182Z,6.75
2023-03-26T20:33:46.592Z,12.18
2023-03-26T20:35:48.903Z,7.72
2023-03-26T20:37:52.562Z,5.03
2023-03-26T20:39:54.617Z,4.38
2023-03-26T20:41:57.235Z,5.25
2023-03-26T20:43:59.395Z,5.72
2023-03-26T20:46:01.820Z,4.07
2023-03-26T20:48:04.059Z,7.65
2023-03-26T20:50:06.931Z,7.70
2023-03-26T20:52:13.764Z,5.00
2023-03-26T20:54:19.799Z,4.57
2023-03-26T20:56:22.131Z,6.63
2023-03-26T20:58:31.384Z,4.85
2023-03-26T21:00:34.912Z,5.72
2023-03-26T21:02:37.306Z,6.05
2023-03-26T21:04:39.556Z,6.32
2023-03-26T21:06:41.920Z,4.03
2023-03-26T21:08:45.527Z,6.25
2023-03-26T21:10:48.053Z,6.15
2023-03-26T21:12:58.910Z,3.80
2023-03-26T21:15:03.306Z,3.95
2023-03-26T21:17:17.284Z,5.70
2023-03-26T21:19:20.459Z,5.30
2023-03-26T21:21:28.824Z,5.13
2023-03-26T21:23:40.476Z,5.88
2023-03-26T21:25:49.128Z,8.60
2023-03-26T21:27:56.080Z,8.68
2023-03-26T21:29:58.772Z,7.70
2023-03-26T21:32:02.341Z,8.07
2023-03-26T21:34:08.816Z,5.80
2023-03-26T21:36:13.845Z,6.13
2023-03-26T21:38:21.811Z,5.53
2023-03-26T21:40:25.196Z,9.27
2023-03-26T21:42:30.396Z,5.20
2023-03-26T21:44:33.341Z,7.00
2023-03-26T21:46:36.057Z,3.08
2023-03-26T21:48:38.552Z,9.65
2023-03-26T21:50:41.140Z,8.68
2023-03-26T21:52:46.905Z,12.65
2023-03-26T21:54:49.585Z,4.57
2023-03-26T21:57:05.527Z,5.05
2023-03-26T21:59:13.863Z,7.70
2023-03-26T22:01:19.491Z,6.60
2023-03-26T22:03:33.016Z,9.25
2023-03-26T22:05:38.595Z,4.95
2023-03-26T22:07:44.669Z,7.72
2023-03-26T22:09:47.563Z,8.48
2023-03-26T22:11:49.685Z,7.70
2023-03-26T22:13:52.017Z,2.22
2023-03-26T22:15:54.717Z,7.78
2023-03-26T22:18:01.758Z,10.05
2023-03-26T22:20:08.111Z,4.82
2023-03-26T22:22:10.743Z,4.10
2023-03-26T22:24:12.941Z,3.20
2023-03-26T22:26:15.310Z,3.92
2023-03-26T22:28:17.552Z,8.13
2023-03-26T22:30:21.136Z,6.18
2023-03-26T22:32:23.376Z,3.72
2023-03-26T22:34:26.288Z,8.90
2023-03-26T22:36:28.568Z,4.88
2023-03-26T22:38:31.124Z,6.82
2023-03-26T22:40:33.673Z,6.15
2023-03-26T22:42:36.925Z,7.35
2023-03-26T22:44:39.898Z,3.20
2023-03-26T22:46:42.279Z,5.35
2023-03-26T22:48:46.136Z,4.70
2023-03-26T22:50:59.032Z,5.30
2023-03-26T22:53:01.240Z,8.00
2023-03-26T22:55:05.660Z,6.25
2023-03-26T22:57:07.847Z,6.93
2023-03-26T22:59:10.615Z,4.10
2023-03-26T23:01:18.030Z,12.52
2023-03-26T23:03:22.361Z,6.07
2023-03-26T23:05:37.970Z,5.22
2023-03-26T23:07:40.432Z,2.63
2023-03-26T23:09:42.681Z,5.60
2023-03-26T23:11:44.829Z,2.83
2023-03-26T23:13:50.291Z,5.25
2023-03-26T23:15:54.803Z,3.13
2023-03-26T23:17:59.522Z,5.07
2023-03-26T23:20:06.294Z,4.20
2023-03-26T23:22:08.914Z,5.53
2023-03-26T23:24:11.099Z,4.90
2023-03-26T23:26:14.905Z,7.28
2023-03-26T23:28:18.187Z,5.85
2023-03-26T23:30:20.371Z,6.38
2023-03-26T23:32:25.397Z,4.70
2023-03-26T23:34:27.559Z,12.57
2023-03-26T23:36:29.769Z,4.03
2023-03-26T23:38:43.432Z,3.13
2023-03-26T23:40:57.327Z,7.45
2023-03-26T23:42:59.782Z,6.78
2023-03-26T23:45:02.334Z,4.88
2023-03-26T23:47:10.461Z,4.75
2023-03-26T23:49:13.086Z,6.93
2023-03-26T23:51:16.851Z,4.53
2023-03-26T23:53:21.226Z,7.82
2023-03-26T23:55:23.296Z,8.05
2023-03-26T23:57:25.932Z,7.65
2023-03-26T23:59:28.372Z,3.35
